createdAt,value
2019-03-06T00:02:15.199Z,6.00
2019-03-06T00:04:42.734Z,6.00
2019-03-06T00:07:10.285Z,6.10
2019-03-06T00:09:37.811Z,6.20
2019-03-06T00:12:05.366Z,6.20
2019-03-06T00:14:32.900Z,6.20
2019-03-06T00:17:00.450Z,6.30
2019-03-06T00:19:27.986Z,6.10
2019-03-06T00:21:55.517Z,6.20
2019-03-06T00:24:23.070Z,6.10
2019-03-06T00:26:51.368Z,6.00
2019-03-06T00:29:18.958Z,6.00
2019-03-06T00:31:46.482Z,6.00
2019-03-06T00:34:15.015Z,6.00
2019-03-06T00:36:42.555Z,6.00
2019-03-06T00:39:11.104Z,6.00
2019-03-06T00:41:38.648Z,5.90
2019-03-06T00:44:06.184Z,6.00
2019-03-06T00:46:33.739Z,5.80
2019-03-06T00:49:01.275Z,5.90
2019-03-06T00:51:28.839Z,5.90
2019-03-06T00:53:56.371Z,5.70
2019-03-06T00:56:23.970Z,5.50
2019-03-06T00:58:52.268Z,5.40
2019-03-06T01:01:19.803Z,5.40
2019-03-06T01:03:48.129Z,5.50
2019-03-06T01:06:15.664Z,5.50
2019-03-06T01:08:43.218Z,5.40
2019-03-06T01:11:10.813Z,5.40
2019-03-06T01:13:38.347Z,5.30
2019-03-06T01:16:06.673Z,5.20
2019-03-06T01:18:34.999Z,5.40
2019-03-06T01:21:02.533Z,5.30
2019-03-06T01:23:30.073Z,5.30
2019-03-06T01:25:57.643Z,5.40
2019-03-06T01:28:25.195Z,5.40
2019-03-06T01:30:53.490Z,5.00
2019-03-06T01:33:36.863Z,5.00
2019-03-06T01:36:04.939Z,5.10
2019-03-06T01:38:43.272Z,4.90
2019-03-06T01:41:17.083Z,5.00
2019-03-06T01:43:49.271Z,5.00
2019-03-06T01:46:16.836Z,4.90
2019-03-06T01:48:44.371Z,5.00
2019-03-06T01:51:11.935Z,5.00
2019-03-06T01:53:39.467Z,4.90
2019-03-06T01:56:07.044Z,4.80
2019-03-06T01:58:34.603Z,4.70
2019-03-06T02:01:02.140Z,4.60
2019-03-06T02:03:29.706Z,4.50
2019-03-06T02:05:57.239Z,4.40
2019-03-06T02:08:24.794Z,4.30
2019-03-06T02:10:52.322Z,4.20
2019-03-06T02:13:19.864Z,4.20
2019-03-06T02:15:47.420Z,4.20
2019-03-06T02:18:14.963Z,4.10
2019-03-06T02:20:43.553Z,4.00
2019-03-06T02:23:11.125Z,4.00
2019-03-06T02:25:38.685Z,4.00
2019-03-06T02:28:06.216Z,4.10
2019-03-06T02:30:33.792Z,4.10
2019-03-06T02:33:01.366Z,4.10
2019-03-06T02:35:28.909Z,4.00
2019-03-06T02:37:56.503Z,4.10
2019-03-06T02:40:24.075Z,4.00
2019-03-06T02:42:52.404Z,3.90
2019-03-06T02:45:19.939Z,3.90
2019-03-06T02:47:47.530Z,3.80
2019-03-06T02:50:15.069Z,3.80
2019-03-06T02:52:42.607Z,3.90
2019-03-06T02:55:11.138Z,4.00
2019-03-06T02:57:38.672Z,4.10
2019-03-06T03:00:23.535Z,4.00
2019-03-06T03:02:52.010Z,4.00
2019-03-06T03:05:19.565Z,4.10
2019-03-06T03:07:47.099Z,4.20
2019-03-06T03:10:15.650Z,4.20
2019-03-06T03:12:43.188Z,4.20
2019-03-06T03:15:10.747Z,4.10
2019-03-06T03:17:38.288Z,4.00
2019-03-06T03:20:05.858Z,4.00
2019-03-06T03:22:33.393Z,3.90
2019-03-06T03:25:00.927Z,3.90
2019-03-06T03:27:28.492Z,3.80
2019-03-06T03:29:56.796Z,3.80
2019-03-06T03:32:24.364Z,3.80
2019-03-06T03:34:51.897Z,3.80
2019-03-06T03:37:19.435Z,3.90
2019-03-06T03:39:46.997Z,3.90
2019-03-06T03:42:14.561Z,4.00
2019-03-06T03:44:42.923Z,4.40
2019-03-06T03:47:10.455Z,4.40
2019-03-06T03:49:37.985Z,4.40
2019-03-06T03:52:05.543Z,4.40
2019-03-06T03:54:33.082Z,4.60
2019-03-06T03:57:00.648Z,4.60
2019-03-06T03:59:29.016Z,4.70
2019-03-06T04:01:56.552Z,4.60
2019-03-06T04:04:24.127Z,4.70
2019-03-06T04:06:51.670Z,4.70
2019-03-06T04:09:20.235Z,4.70
2019-03-06T04:11:47.764Z,4.60
2019-03-06T04:14:15.338Z,4.70
2019-03-06T04:16:44.647Z,4.70
2019-03-06T04:19:12.180Z,4.70
2019-03-06T04:21:39.740Z,4.80
2019-03-06T04:24:07.283Z,4.90
2019-03-06T04:26:35.625Z,5.10
2019-03-06T04:29:03.165Z,5.10
2019-03-06T04:31:30.728Z,5.10
2019-03-06T04:33:58.255Z,5.00
2019-03-06T04:36:25.787Z,4.80
2019-03-06T04:38:53.355Z,4.80
2019-03-06T04:41:20.926Z,4.70
2019-03-06T04:43:48.487Z,4.70
2019-03-06T04:46:16.023Z,4.60
2019-03-06T04:48:43.622Z,4.60
2019-03-06T04:51:13.091Z,4.40
2019-03-06T04:53:38.752Z,4.50
2019-03-06T04:56:06.359Z,4.60
2019-03-06T04:58:34.679Z,4.50
2019-03-06T05:01:02.214Z,4.50
2019-03-06T05:03:29.804Z,4.50
2019-03-06T05:05:57.348Z,4.60
2019-03-06T05:08:24.888Z,4.70
2019-03-06T05:10:52.448Z,4.80
2019-03-06T05:13:19.992Z,4.90
2019-03-06T05:15:47.527Z,4.80
2019-03-06T05:18:22.482Z,4.70
2019-03-06T05:20:50.042Z,4.70
2019-03-06T05:23:17.599Z,4.60
2019-03-06T05:25:45.131Z,4.50
2019-03-06T05:28:12.687Z,4.50
2019-03-06T05:30:40.218Z,4.50
2019-03-06T05:33:09.666Z,4.50
2019-03-06T05:35:39.858Z,4.50
2019-03-06T05:38:11.069Z,4.50
2019-03-06T05:40:38.598Z,4.40
2019-03-06T05:43:06.162Z,4.40
2019-03-06T05:45:33.696Z,4.60
2019-03-06T05:48:01.295Z,4.80
2019-03-06T05:50:28.828Z,4.80
2019-03-06T05:52:56.507Z,4.80
2019-03-06T05:55:24.047Z,4.80
2019-03-06T05:57:51.583Z,4.70
2019-03-06T06:00:19.141Z,4.80
2019-03-06T06:02:46.696Z,4.80
2019-03-06T06:05:14.282Z,4.70
2019-03-06T06:07:41.810Z,4.70
2019-03-06T06:10:09.386Z,4.80
2019-03-06T06:12:36.941Z,4.90
2019-03-06T06:15:05.416Z,5.00
2019-03-06T06:17:32.955Z,5.10
2019-03-06T06:20:01.251Z,5.30
2019-03-06T06:22:34.428Z,5.30
2019-03-06T06:25:02.009Z,5.40
2019-03-06T06:27:29.575Z,5.40
2019-03-06T06:29:57.107Z,5.50
2019-03-06T06:32:24.667Z,5.60
2019-03-06T06:34:52.206Z,5.70
2019-03-06T06:37:20.527Z,6.00
2019-03-06T06:39:48.054Z,6.00
2019-03-06T06:42:15.615Z,6.10
2019-03-06T06:44:43.147Z,6.20
2019-03-06T06:47:10.686Z,6.20
2019-03-06T06:49:40.158Z,6.30
2019-03-06T06:52:20.943Z,6.30
2019-03-06T06:54:59.974Z,6.30
2019-03-06T07:00:56.559Z,6.30
2019-03-06T07:03:25.992Z,6.40
2019-03-06T07:05:54.021Z,6.50
2019-03-06T07:08:34.409Z,6.80
2019-03-06T07:11:07.559Z,6.90
2019-03-06T07:13:51.778Z,7.00
2019-03-06T07:16:20.196Z,7.10
2019-03-06T07:18:54.190Z,7.40
2019-03-06T07:21:24.407Z,7.40
2019-03-06T07:23:54.742Z,7.40
2019-03-06T07:26:26.859Z,7.50
2019-03-06T07:29:01.331Z,7.50
2019-03-06T07:31:27.631Z,7.60
2019-03-06T07:34:07.788Z,7.80
2019-03-06T07:36:49.994Z,7.80
2019-03-06T07:39:18.421Z,7.90
2019-03-06T07:41:46.616Z,8.00
2019-03-06T07:44:19.875Z,8.30
2019-03-06T07:46:51.163Z,8.50
2019-03-06T07:49:34.487Z,8.80
2019-03-06T07:54:56.595Z,9.30
2019-03-06T07:57:24.193Z,9.30
2019-03-06T07:59:51.721Z,9.40
2019-03-06T08:02:20.176Z,9.60
2019-03-06T08:04:52.269Z,9.70
2019-03-06T08:07:19.831Z,9.90
2019-03-06T08:09:47.436Z,10.00
2019-03-06T08:12:27.851Z,10.10
2019-03-06T08:15:11.142Z,10.30
2019-03-06T08:17:41.516Z,10.50
2019-03-06T08:20:24.735Z,10.60
2019-03-06T08:22:54.772Z,10.60
2019-03-06T08:25:28.621Z,10.70
2019-03-06T08:27:56.182Z,10.70
2019-03-06T08:30:23.715Z,10.70
2019-03-06T08:32:51.271Z,10.80
2019-03-06T08:35:19.598Z,11.00
2019-03-06T08:37:47.163Z,11.00
2019-03-06T08:40:14.699Z,11.20
2019-03-06T08:42:42.231Z,11.20
2019-03-06T08:45:10.552Z,11.40
2019-03-06T08:47:38.887Z,11.70
2019-03-06T08:50:09.051Z,11.90
2019-03-06T08:52:37.427Z,12.00
2019-03-06T08:55:04.992Z,11.90
2019-03-06T08:57:38.214Z,11.90
2019-03-06T09:00:08.981Z,11.70
2019-03-06T09:02:36.523Z,11.60
2019-03-06T09:05:06.738Z,11.70
2019-03-06T09:07:36.187Z,11.80
2019-03-06T09:10:04.228Z,11.90
2019-03-06T09:12:44.624Z,12.00
2019-03-06T09:15:18.471Z,12.20
2019-03-06T09:17:51.738Z,12.10
2019-03-06T09:20:25.063Z,12.10
2019-03-06T09:26:01.320Z,12.20
2019-03-06T09:28:29.487Z,12.30
2019-03-06T09:30:57.514Z,12.20
2019-03-06T09:33:27.609Z,12.20
2019-03-06T09:38:56.421Z,12.40
2019-03-06T09:41:29.462Z,12.30
2019-03-06T09:44:10.880Z,12.60
2019-03-06T09:46:38.466Z,12.90
2019-03-06T09:49:18.900Z,12.90
2019-03-06T09:54:45.946Z,13.20
2019-03-06T09:57:15.243Z,13.20
2019-03-06T09:59:58.558Z,13.10
2019-03-06T10:02:28.956Z,13.40
2019-03-06T10:04:57.070Z,13.20
2019-03-06T10:07:39.488Z,13.10
2019-03-06T10:10:22.837Z,13.10
2019-03-06T10:12:50.369Z,13.20
2019-03-06T10:15:19.643Z,13.10
2019-03-06T10:17:50.778Z,13.20
2019-03-06T10:20:25.074Z,13.40
2019-03-06T10:22:48.896Z,13.60
2019-03-06T10:25:15.382Z,13.70
2019-03-06T10:27:42.920Z,14.00
2019-03-06T10:30:10.470Z,14.20
2019-03-06T10:32:38.062Z,14.30
2019-03-06T10:35:05.611Z,14.30
2019-03-06T10:37:33.950Z,14.50
2019-03-06T10:40:01.499Z,14.50
2019-03-06T10:42:29.080Z,14.50
2019-03-06T10:44:56.644Z,14.50
2019-03-06T10:47:24.182Z,14.70
2019-03-06T10:49:51.759Z,14.80
2019-03-06T10:52:20.121Z,14.80
2019-03-06T10:54:49.586Z,15.20
2019-03-06T10:57:17.153Z,15.10
2019-03-06T10:59:44.752Z,15.30
2019-03-06T11:02:12.339Z,15.40
2019-03-06T11:04:51.787Z,15.70
2019-03-06T11:07:19.749Z,16.00
2019-03-06T11:09:48.366Z,16.40
2019-03-06T11:12:15.959Z,16.40
2019-03-06T11:14:44.573Z,16.40
2019-03-06T11:17:11.130Z,16.60
2019-03-06T11:19:38.705Z,16.70
2019-03-06T11:22:14.409Z,16.80
2019-03-06T11:24:41.951Z,16.80
2019-03-06T11:27:09.529Z,17.00
2019-03-06T11:29:37.075Z,16.80
2019-03-06T11:32:04.620Z,16.70
2019-03-06T11:34:32.200Z,16.70
2019-03-06T11:37:02.933Z,16.50
2019-03-06T11:39:30.518Z,16.60
2019-03-06T11:41:58.059Z,16.60
2019-03-06T11:44:25.627Z,16.70
2019-03-06T11:46:53.204Z,16.70
2019-03-06T11:49:20.793Z,16.80
2019-03-06T11:51:48.343Z,16.80
2019-03-06T11:54:15.910Z,16.90
2019-03-06T11:56:43.466Z,17.30
2019-03-06T11:59:11.044Z,17.30
2019-03-06T12:01:47.555Z,17.30
2019-03-06T12:04:06.230Z,17.40
2019-03-06T12:06:33.774Z,17.30
2019-03-06T12:09:01.355Z,17.00
2019-03-06T12:11:28.959Z,17.10
2019-03-06T12:13:57.517Z,17.20
2019-03-06T12:16:25.058Z,17.20
2019-03-06T12:18:52.606Z,17.20
2019-03-06T12:21:20.186Z,17.00
2019-03-06T12:23:48.586Z,17.00
2019-03-06T12:26:16.166Z,17.20
2019-03-06T12:28:51.362Z,17.20
2019-03-06T12:31:18.931Z,17.00
2019-03-06T12:33:46.463Z,17.00
2019-03-06T12:36:21.684Z,17.20
2019-03-06T12:38:49.251Z,17.20
2019-03-06T12:41:16.843Z,17.30
2019-03-06T12:43:44.791Z,17.10
2019-03-06T12:46:22.399Z,17.20
2019-03-06T12:48:41.353Z,17.20
2019-03-06T12:51:12.605Z,17.20
2019-03-06T12:53:40.171Z,17.10
2019-03-06T12:56:07.712Z,17.20
2019-03-06T12:58:35.281Z,17.00
2019-03-06T13:01:02.810Z,16.80
2019-03-06T13:03:30.355Z,16.80
2019-03-06T13:05:58.699Z,17.00
2019-03-06T13:08:26.243Z,17.00
2019-03-06T13:10:53.842Z,17.10
2019-03-06T13:13:21.404Z,17.30
2019-03-06T13:15:49.735Z,17.50
2019-03-06T13:18:17.276Z,17.50
2019-03-06T13:20:44.843Z,17.80
2019-03-06T13:23:12.424Z,18.00
2019-03-06T13:25:40.178Z,18.10
2019-03-06T13:28:09.534Z,18.00
2019-03-06T13:30:37.106Z,17.90
2019-03-06T13:33:05.623Z,18.00
2019-03-06T13:35:33.166Z,18.00
2019-03-06T13:38:00.732Z,18.00
2019-03-06T13:40:28.290Z,17.90
2019-03-06T13:42:55.867Z,17.80
2019-03-06T13:45:26.181Z,17.90
2019-03-06T13:47:53.719Z,17.90
2019-03-06T13:50:23.815Z,17.80
2019-03-06T13:52:49.838Z,17.80
2019-03-06T13:55:19.156Z,17.80
2019-03-06T13:57:46.696Z,17.80
2019-03-06T14:00:22.035Z,17.80
2019-03-06T14:02:51.550Z,17.90
2019-03-06T14:05:19.097Z,17.90
2019-03-06T14:07:55.669Z,17.60
2019-03-06T14:10:23.633Z,17.60
2019-03-06T14:12:51.236Z,17.60
2019-03-06T14:15:18.800Z,17.40
2019-03-06T14:17:48.101Z,17.30
2019-03-06T14:20:16.436Z,17.20
2019-03-06T14:22:43.978Z,17.20
2019-03-06T14:25:11.547Z,17.30
2019-03-06T14:27:39.106Z,17.10
2019-03-06T14:30:13.115Z,17.10
2019-03-06T14:32:40.682Z,17.10
2019-03-06T14:35:08.259Z,17.00
2019-03-06T14:37:36.571Z,17.20
2019-03-06T14:40:09.969Z,17.20
2019-03-06T14:42:34.795Z,17.20
2019-03-06T14:45:02.371Z,17.30
2019-03-06T14:47:29.912Z,17.50
2019-03-06T14:49:57.503Z,17.30
2019-03-06T14:52:25.050Z,17.50
2019-03-06T14:54:53.396Z,17.60
2019-03-06T14:57:20.960Z,17.60
2019-03-06T14:59:49.586Z,17.50
2019-03-06T15:02:17.890Z,17.40
2019-03-06T15:04:45.483Z,17.40
2019-03-06T15:07:13.050Z,17.40
2019-03-06T15:09:40.591Z,17.40
2019-03-06T15:12:08.162Z,17.40
2019-03-06T15:14:38.281Z,17.40
2019-03-06T15:17:04.333Z,17.40
2019-03-06T15:19:31.907Z,17.30
2019-03-06T15:22:02.226Z,17.20
2019-03-06T15:24:28.092Z,17.20
2019-03-06T15:26:55.651Z,17.10
2019-03-06T15:29:23.209Z,17.00
2019-03-06T15:31:51.602Z,17.00
2019-03-06T15:34:18.367Z,17.00
2019-03-06T15:36:45.931Z,17.00
2019-03-06T15:39:20.072Z,17.10
2019-03-06T15:41:47.642Z,17.10
2019-03-06T15:44:15.182Z,17.00
2019-03-06T15:46:42.731Z,16.80
2019-03-06T15:49:12.200Z,16.70
2019-03-06T15:51:39.871Z,16.60
2019-03-06T15:54:08.434Z,16.50
2019-03-06T15:56:35.987Z,16.50
2019-03-06T15:59:03.554Z,16.40
2019-03-06T16:01:33.263Z,16.30
2019-03-06T16:04:00.467Z,16.20
2019-03-06T16:06:28.010Z,16.20
2019-03-06T16:08:55.563Z,16.00
2019-03-06T16:11:23.153Z,16.00
2019-03-06T16:13:50.687Z,16.00
2019-03-06T16:16:18.254Z,15.80
2019-03-06T16:18:45.824Z,15.80
2019-03-06T16:21:13.393Z,15.70
2019-03-06T16:23:41.705Z,15.60
2019-03-06T16:26:09.285Z,15.50
2019-03-06T16:28:36.822Z,15.50
2019-03-06T16:31:04.393Z,15.40
2019-03-06T16:33:31.963Z,15.40
2019-03-06T16:35:59.516Z,15.30
2019-03-06T16:38:27.078Z,15.20
2019-03-06T16:40:54.641Z,15.20
2019-03-06T16:43:22.234Z,15.00
2019-03-06T16:45:56.305Z,14.90
2019-03-06T16:48:24.370Z,14.90
2019-03-06T16:50:51.938Z,14.70
2019-03-06T16:53:19.493Z,14.60
2019-03-06T16:55:47.023Z,14.60
2019-03-06T16:58:14.587Z,14.50
2019-03-06T17:00:42.197Z,14.40
2019-03-06T17:03:10.539Z,14.30
2019-03-06T17:05:38.883Z,14.30
2019-03-06T17:08:06.542Z,14.20
2019-03-06T17:10:34.079Z,14.20
2019-03-06T17:13:01.675Z,14.10
2019-03-06T17:15:29.227Z,14.10
2019-03-06T17:17:56.763Z,14.00
2019-03-06T17:20:25.243Z,14.00
2019-03-06T17:22:52.828Z,14.00
2019-03-06T17:25:20.423Z,13.80
2019-03-06T17:27:47.989Z,13.80
2019-03-06T17:30:20.113Z,13.80
2019-03-06T17:33:04.237Z,13.80
2019-03-06T17:35:31.813Z,13.70
2019-03-06T17:37:59.433Z,13.60
2019-03-06T17:40:27.007Z,13.60
2019-03-06T17:42:54.658Z,13.40
2019-03-06T17:45:22.229Z,13.40
2019-03-06T17:47:49.877Z,13.30
2019-03-06T17:50:17.603Z,13.30
2019-03-06T17:52:45.214Z,13.30
2019-03-06T17:55:12.767Z,13.30
2019-03-06T17:57:40.339Z,13.30
2019-03-06T18:00:17.095Z,13.20
2019-03-06T18:02:44.470Z,13.20
2019-03-06T18:05:12.456Z,13.20
2019-03-06T18:07:40.010Z,13.30
2019-03-06T18:10:07.570Z,13.30
2019-03-06T18:12:35.923Z,13.30
2019-03-06T18:15:03.468Z,13.30
2019-03-06T18:17:32.052Z,13.40
2019-03-06T18:19:59.639Z,13.40
2019-03-06T18:22:27.232Z,13.50
2019-03-06T18:24:54.787Z,13.50
2019-03-06T18:27:26.417Z,13.40
2019-03-06T18:29:49.937Z,13.40
2019-03-06T18:32:17.531Z,13.40
2019-03-06T18:34:45.101Z,13.30
2019-03-06T18:37:12.642Z,13.30
2019-03-06T18:39:40.214Z,13.30
2019-03-06T18:42:07.795Z,13.20
2019-03-06T18:44:36.130Z,13.10
2019-03-06T18:47:03.683Z,13.00
2019-03-06T18:49:31.251Z,12.80
2019-03-06T18:51:58.823Z,12.70
2019-03-06T18:54:27.141Z,12.60
2019-03-06T18:56:54.720Z,12.50
2019-03-06T18:59:22.292Z,12.60
2019-03-06T19:01:49.842Z,12.50
2019-03-06T19:04:17.414Z,12.40
2019-03-06T19:06:45.732Z,12.40
2019-03-06T19:09:13.302Z,12.40
2019-03-06T19:11:40.893Z,12.40
2019-03-06T19:14:08.474Z,12.20
2019-03-06T19:16:36.051Z,12.30
2019-03-06T19:19:03.627Z,12.30
2019-03-06T19:21:31.282Z,12.30
2019-03-06T19:23:58.835Z,12.30
2019-03-06T19:26:26.419Z,12.30
2019-03-06T19:28:53.993Z,12.20
2019-03-06T19:31:21.576Z,12.10
2019-03-06T19:33:49.134Z,12.10
2019-03-06T19:36:16.717Z,12.10
2019-03-06T19:38:45.036Z,12.10
2019-03-06T19:41:13.614Z,12.10
2019-03-06T19:43:41.158Z,12.00
2019-03-06T19:46:08.762Z,12.00
2019-03-06T19:48:36.300Z,12.00
2019-03-06T19:51:03.872Z,11.90
2019-03-06T19:53:31.452Z,11.90
2019-03-06T19:55:59.017Z,12.00
2019-03-06T19:58:26.575Z,11.90
2019-03-06T20:00:54.895Z,11.90
2019-03-06T20:03:22.496Z,11.90
2019-03-06T20:05:50.051Z,11.80
2019-03-06T20:08:17.624Z,11.80
2019-03-06T20:10:45.934Z,11.80
2019-03-06T20:13:13.510Z,11.80
2019-03-06T20:15:41.084Z,11.80
2019-03-06T20:18:08.659Z,11.80
2019-03-06T20:20:37.016Z,11.80
2019-03-06T20:23:04.579Z,11.80
2019-03-06T20:25:32.146Z,11.80
2019-03-06T20:27:59.719Z,11.70
2019-03-06T20:30:28.031Z,11.60
2019-03-06T20:32:57.163Z,11.60
2019-03-06T20:35:24.031Z,11.40
2019-03-06T20:37:51.583Z,11.40
2019-03-06T20:40:19.146Z,11.40
2019-03-06T20:42:47.451Z,11.40
2019-03-06T20:45:15.015Z,11.30
2019-03-06T20:47:42.559Z,11.40
2019-03-06T20:50:10.150Z,11.50
2019-03-06T20:52:38.309Z,11.50
2019-03-06T20:55:05.914Z,11.40
2019-03-06T20:57:33.487Z,11.30
2019-03-06T21:00:01.041Z,11.30
2019-03-06T21:02:29.972Z,11.20
2019-03-06T21:04:57.828Z,11.20
2019-03-06T21:07:25.407Z,11.40
2019-03-06T21:09:52.955Z,11.40
2019-03-06T21:12:20.514Z,11.30
2019-03-06T21:14:48.066Z,11.30
2019-03-06T21:17:15.643Z,11.10
2019-03-06T21:19:43.195Z,11.00
2019-03-06T21:22:10.779Z,11.10
2019-03-06T21:24:39.082Z,10.90
2019-03-06T21:27:06.658Z,10.90
2019-03-06T21:29:34.282Z,10.80
2019-03-06T21:32:01.855Z,10.70
2019-03-06T21:34:29.657Z,10.60
2019-03-06T21:36:57.264Z,10.60
2019-03-06T21:39:24.836Z,10.50
2019-03-06T21:41:52.420Z,10.40
2019-03-06T21:44:20.003Z,10.40
2019-03-06T21:46:47.550Z,10.40
2019-03-06T21:49:15.129Z,10.30
2019-03-06T21:51:42.688Z,10.30
2019-03-06T21:54:11.039Z,10.30
2019-03-06T21:56:38.616Z,10.30
2019-03-06T21:59:06.190Z,10.30
2019-03-06T22:01:33.753Z,10.30
2019-03-06T22:04:02.094Z,10.50
2019-03-06T22:06:29.650Z,10.40
2019-03-06T22:08:57.528Z,10.60
2019-03-06T22:11:25.466Z,10.60
2019-03-06T22:13:53.133Z,10.60
2019-03-06T22:16:20.713Z,10.60
2019-03-06T22:18:48.263Z,10.80
2019-03-06T22:21:15.850Z,10.90
2019-03-06T22:23:44.170Z,11.10
2019-03-06T22:26:12.038Z,11.10
2019-03-06T22:28:39.645Z,11.10
2019-03-06T22:31:07.227Z,11.20
2019-03-06T22:33:34.766Z,11.20
2019-03-06T22:36:02.342Z,11.20
2019-03-06T22:38:29.888Z,11.20
2019-03-06T22:40:58.447Z,11.20
2019-03-06T22:43:25.988Z,11.10
2019-03-06T22:45:53.552Z,11.10
2019-03-06T22:48:21.086Z,11.10
2019-03-06T22:50:48.631Z,11.10
2019-03-06T22:53:16.191Z,11.20
2019-03-06T22:55:43.736Z,11.20
2019-03-06T22:58:11.298Z,11.30
2019-03-06T23:00:43.435Z,11.30
2019-03-06T23:03:11.031Z,11.40
2019-03-06T23:05:38.689Z,11.50
2019-03-06T23:08:06.289Z,11.50
2019-03-06T23:10:33.846Z,11.50
2019-03-06T23:13:01.405Z,11.60
2019-03-06T23:15:29.197Z,11.70
2019-03-06T23:17:56.590Z,11.70
2019-03-06T23:20:24.140Z,11.60
2019-03-06T23:22:51.690Z,11.40
2019-03-06T23:25:19.452Z,11.40
2019-03-06T23:27:46.999Z,11.30
2019-03-06T23:30:15.689Z,11.40
2019-03-06T23:32:43.231Z,11.50
2019-03-06T23:35:10.812Z,11.50
2019-03-06T23:37:38.355Z,11.40
2019-03-06T23:40:06.741Z,11.30
2019-03-06T23:42:34.283Z,11.20
2019-03-06T23:45:01.856Z,11.20
2019-03-06T23:47:29.398Z,11.20
2019-03-06T23:49:56.972Z,11.30
2019-03-06T23:52:25.155Z,11.20
2019-03-06T23:54:52.705Z,11.30
2019-03-06T23:57:20.272Z,11.20
2019-03-06T23:59:47.847Z,11.30
